Time;durP1;ratioP1;P1;durP2;ratioP2;P2;SDS_P1;SDS_P2;PMS_P1;PMS_P2;Temp;Humidity;BMP_temperature;BMP_pressure;BME280_temperature;BME280_humidity;BME280_pressure;Samples;Min_cycle;Max_cycle;Signal;HPM_P1;HPM_P2
2021/07/17 00:00:59;;;;;;;10.57;9.47;;;;;;;20.62;100.00;100919.06;4969703;28;20233;-73
2021/07/17 00:03:26;;;;;;;12.23;8.70;;;;;;;20.62;100.00;100921.72;4960990;28;20205;-72
2021/07/17 00:05:52;;;;;;;9.90;8.90;;;;;;;20.61;100.00;100925.28;4967557;28;20209;-72
2021/07/17 00:08:19;;;;;;;13.67;9.10;;;;;;;20.63;100.00;100915.47;4959360;28;20212;-73
2021/07/17 00:10:49;;;;;;;14.83;9.67;;;;;;;20.63;100.00;100920.75;4972502;28;20232;-72
2021/07/17 00:13:15;;;;;;;11.93;9.27;;;;;;;20.64;100.00;100919.81;4964482;28;20218;-73
2021/07/17 00:15:42;;;;;;;11.13;9.17;;;;;;;20.60;100.00;100921.78;4969059;28;20202;-73
2021/07/17 00:18:12;;;;;;;11.20;9.07;;;;;;;20.57;100.00;100924.63;4965090;28;20205;-71
2021/07/17 00:20:39;;;;;;;12.67;9.40;;;;;;;20.59;100.00;100927.16;4967799;28;20578;-72
2021/07/17 00:23:05;;;;;;;10.93;9.30;;;;;;;20.58;100.00;100920.19;4964250;28;20297;-73
2021/07/17 00:25:32;;;;;;;14.97;9.57;;;;;;;20.57;100.00;100910.53;4971091;28;20243;-73
2021/07/17 00:27:59;;;;;;;14.07;10.17;;;;;;;20.57;100.00;100916.66;4966609;28;20233;-73
2021/07/17 00:30:26;;;;;;;14.80;10.53;;;;;;;20.59;100.00;100921.88;4965006;28;20206;-73
2021/07/17 00:32:53;;;;;;;16.50;10.40;;;;;;;20.57;100.00;100924.63;4965661;28;20213;-73
2021/07/17 00:35:20;;;;;;;14.43;10.20;;;;;;;20.56;100.00;100924.72;4966473;28;20308;-73
2021/07/17 00:37:47;;;;;;;12.80;10.23;;;;;;;20.56;100.00;100925.59;4965830;28;20584;-73
2021/07/17 00:40:19;;;;;;;12.70;10.47;;;;;;;20.55;100.00;100929.16;4965488;28;20210;-72
2021/07/17 00:42:46;;;;;;;15.30;10.93;;;;;;;20.55;100.00;100923.88;4961748;28;20573;-73
2021/07/17 00:45:13;;;;;;;13.47;11.00;;;;;;;20.54;100.00;100923.97;4966705;28;20194;-72
2021/07/17 00:47:40;;;;;;;13.87;10.57;;;;;;;20.53;100.00;100920.47;4965129;28;21376;-71
2021/07/17 00:50:09;;;;;;;15.57;11.00;;;;;;;20.57;100.00;100913.19;4969739;28;20591;-73
2021/07/17 00:52:37;;;;;;;14.83;10.37;;;;;;;20.55;100.00;100921.22;4963350;28;20235;-72
2021/07/17 00:55:05;;;;;;;14.00;11.03;;;;;;;20.53;100.00;100923.13;4971323;28;20217;-73
2021/07/17 00:57:34;;;;;;;14.83;10.80;;;;;;;20.54;100.00;100923.97;4967249;28;20313;-72
2021/07/17 01:00:02;;;;;;;15.70;11.00;;;;;;;20.55;100.00;100923.03;4968218;28;20260;-72
2021/07/17 01:02:31;;;;;;;14.70;10.73;;;;;;;20.55;100.00;100912.44;4967129;28;20209;-72
2021/07/17 01:04:59;;;;;;;15.60;11.20;;;;;;;20.56;100.00;100914.13;4967200;28;20281;-73
2021/07/17 01:07:26;;;;;;;13.83;11.17;;;;;;;20.57;100.00;100915.84;4960953;28;20320;-73
2021/07/17 01:09:53;;;;;;;14.17;11.77;;;;;;;20.55;100.00;100909.78;4970211;28;20200;-72
2021/07/17 01:12:20;;;;;;;14.30;11.90;;;;;;;20.52;100.00;100907.31;4964142;28;20995;-73
2021/07/17 01:14:47;;;;;;;14.40;11.33;;;;;;;20.54;100.00;100908.91;4966219;28;20205;-73
2021/07/17 01:17:14;;;;;;;15.53;11.27;;;;;;;20.52;100.00;100910.81;4967447;28;20233;-73
2021/07/17 01:19:41;;;;;;;14.37;11.03;;;;;;;20.54;100.00;100914.22;4967512;28;20217;-73
2021/07/17 01:22:09;;;;;;;14.10;10.83;;;;;;;20.52;100.00;100908.16;4962429;28;20210;-72
2021/07/17 01:24:36;;;;;;;16.33;11.30;;;;;;;20.52;100.00;100909.97;4965915;28;20277;-72
2021/07/17 01:27:03;;;;;;;16.63;11.87;;;;;;;20.53;100.00;100916.97;4963987;28;20327;-72
2021/07/17 01:29:29;;;;;;;13.93;11.67;;;;;;;20.53;100.00;100907.22;4963626;28;20211;-72
2021/07/17 01:31:56;;;;;;;14.60;11.73;;;;;;;20.51;100.00;100909.13;4964724;28;20202;-73
2021/07/17 01:34:22;;;;;;;15.53;11.23;;;;;;;20.49;100.00;100902.22;4964100;28;20225;-73
2021/07/17 01:36:49;;;;;;;14.43;11.80;;;;;;;20.51;100.00;100897.66;4967302;28;20320;-73
2021/07/17 01:39:16;;;;;;;15.77;12.20;;;;;;;20.47;100.00;100898.81;4965362;28;20205;-73
2021/07/17 01:41:43;;;;;;;14.00;11.40;;;;;;;20.47;100.00;100898.81;4966298;28;20206;-73
2021/07/17 01:44:09;;;;;;;16.23;11.57;;;;;;;20.46;100.00;100887.38;4970747;28;20201;-73
2021/07/17 01:46:36;;;;;;;15.80;12.13;;;;;;;20.47;100.00;100893.53;4964626;28;20329;-72
2021/07/17 01:49:03;;;;;;;17.23;11.30;;;;;;;20.47;100.00;100897.00;4965002;28;20216;-72
2021/07/17 01:51:29;;;;;;;14.83;11.20;;;;;;;20.47;100.00;100893.53;4964925;28;20304;-73
2021/07/17 01:53:57;;;;;;;15.57;11.87;;;;;;;20.46;100.00;100894.50;4966173;28;20226;-73
2021/07/17 01:56:26;;;;;;;13.50;11.07;;;;;;;20.48;100.00;100897.88;4963288;28;20766;-73
2021/07/17 01:58:53;;;;;;;15.50;11.40;;;;;;;20.48;100.00;100887.28;4966164;28;20415;-73
2021/07/17 02:01:20;;;;;;;16.53;11.40;;;;;;;20.47;100.00;100890.88;4962690;28;20205;-73
2021/07/17 02:03:49;;;;;;;16.70;12.17;;;;;;;20.49;100.00;100895.13;4966876;28;20672;-73
2021/07/17 02:06:22;;;;;;;15.80;11.47;;;;;;;20.48;100.00;100890.78;4966954;28;20320;-72
2021/07/17 02:08:49;;;;;;;16.97;11.70;;;;;;;20.49;100.00;100891.63;4961926;28;20217;-72
2021/07/17 02:11:15;;;;;;;18.30;12.27;;;;;;;20.49;100.00;100891.63;4964513;28;20289;-72
2021/07/17 02:13:43;;;;;;;17.13;11.20;;;;;;;20.48;100.00;100892.59;4964871;28;20316;-72
2021/07/17 02:16:09;;;;;;;14.23;11.50;;;;;;;20.48;100.00;100890.78;4968899;28;20866;-72
2021/07/17 02:18:36;;;;;;;14.23;11.17;;;;;;;20.48;100.00;100895.22;4966618;28;20213;-72
2021/07/17 02:21:04;;;;;;;15.20;11.30;;;;;;;20.50;100.00;100894.19;4964996;28;20679;-72
2021/07/17 02:23:31;;;;;;;17.47;11.37;;;;;;;20.49;100.00;100884.56;4960643;28;20269;-72
2021/07/17 02:25:57;;;;;;;15.33;11.57;;;;;;;20.50;100.00;100880.94;4966784;28;20201;-72
2021/07/17 02:28:24;;;;;;;16.40;11.73;;;;;;;20.49;100.00;100878.38;4967284;28;20206;-72
2021/07/17 02:30:53;;;;;;;16.43;12.50;;;;;;;20.49;100.00;100878.38;4966122;28;20205;-72
2021/07/17 02:33:20;;;;;;;17.00;11.87;;;;;;;20.48;100.00;100880.19;4956493;28;20321;-72
2021/07/17 02:35:47;;;;;;;17.90;12.00;;;;;;;20.47;100.00;100885.56;4966134;28;20198;-72
2021/07/17 02:38:14;;;;;;;16.03;11.83;;;;;;;20.47;100.00;100889.06;4963636;28;20767;-72
2021/07/17 02:40:41;;;;;;;19.87;13.07;;;;;;;20.47;100.00;100880.28;4970368;28;20197;-72
2021/07/17 02:43:07;;;;;;;17.23;12.63;;;;;;;20.47;100.00;100881.13;4963867;28;20742;-72
2021/07/17 02:45:34;;;;;;;20.87;12.50;;;;;;;20.48;100.00;100888.13;4965358;28;20202;-72
2021/07/17 02:48:02;;;;;;;18.60;12.73;;;;;;;20.49;100.00;100888.97;4967854;28;20226;-72
2021/07/17 02:50:28;;;;;;;20.40;12.90;;;;;;;20.48;100.00;100896.06;4966136;28;20368;-72
2021/07/17 02:52:55;;;;;;;16.60;12.23;;;;;;;20.50;100.00;100904.78;4962329;28;20285;-72
2021/07/17 02:55:21;;;;;;;18.40;13.07;;;;;;;20.50;100.00;100901.28;4965332;28;20530;-72
2021/07/17 02:57:48;;;;;;;16.47;13.40;;;;;;;20.51;100.00;100905.63;4963591;28;20254;-72
2021/07/17 03:00:15;;;;;;;19.73;14.07;;;;;;;20.51;100.00;100902.97;4966947;28;20205;-72
2021/07/17 03:02:43;;;;;;;19.30;13.43;;;;;;;20.48;100.00;100896.06;4965515;28;20306;-72
2021/07/17 03:05:12;;;;;;;17.17;12.80;;;;;;;20.47;100.00;100899.66;4963553;28;20209;-72
2021/07/17 03:07:38;;;;;;;18.70;12.73;;;;;;;20.48;100.00;100903.19;4961425;28;20240;-71
2021/07/17 03:10:06;;;;;;;19.93;14.00;;;;;;;20.48;100.00;100898.72;4964474;28;20213;-72
2021/07/17 03:12:32;;;;;;;18.43;13.63;;;;;;;20.51;100.00;100906.47;4964817;28;20340;-72
2021/07/17 03:14:59;;;;;;;19.13;13.00;;;;;;;20.52;100.00;100902.03;4955839;28;20237;-72
2021/07/17 03:17:25;;;;;;;21.33;14.03;;;;;;;20.52;100.00;100900.22;4962895;28;20236;-72
2021/07/17 03:19:52;;;;;;;19.80;14.00;;;;;;;20.52;100.00;100904.69;4967447;28;20201;-72
2021/07/17 03:22:22;;;;;;;19.40;13.53;;;;;;;20.51;100.00;100903.84;4963234;28;20241;-72
2021/07/17 03:24:48;;;;;;;20.17;13.53;;;;;;;20.52;100.00;100902.88;4960955;28;20206;-72
2021/07/17 03:27:14;;;;;;;20.03;13.83;;;;;;;20.53;100.00;100901.94;4967280;28;20229;-72
2021/07/17 03:29:41;;;;;;;20.17;13.67;;;;;;;20.53;100.00;100901.09;4970514;28;20209;-72
2021/07/17 03:32:08;;;;;;;21.20;13.43;;;;;;;20.54;100.00;100903.63;4961615;28;20206;-72
2021/07/17 03:34:34;;;;;;;19.77;13.57;;;;;;;20.53;100.00;100909.03;4965964;28;20217;-72
2021/07/17 03:37:00;;;;;;;21.73;14.40;;;;;;;20.54;100.00;100908.06;4964546;28;20230;-72
2021/07/17 03:39:28;;;;;;;17.57;13.60;;;;;;;20.56;100.00;100914.13;4968326;28;20198;-72
2021/07/17 03:41:55;;;;;;;20.50;14.00;;;;;;;20.56;100.00;100912.34;4971425;28;20679;-72
2021/07/17 03:44:24;;;;;;;19.70;14.03;;;;;;;20.55;100.00;100907.13;4969294;28;20732;-72
2021/07/17 03:46:50;;;;;;;20.07;13.77;;;;;;;20.56;100.00;100912.34;4966916;28;20845;-72
2021/07/17 03:49:17;;;;;;;20.73;14.50;;;;;;;20.58;100.00;100910.44;4980220;28;20216;-72
2021/07/17 03:51:43;;;;;;;22.00;14.97;;;;;;;20.57;100.00;100902.59;4963593;28;20206;-72
2021/07/17 03:54:10;;;;;;;19.17;13.50;;;;;;;20.58;100.00;100907.78;4964322;28;20218;-72
2021/07/17 03:56:38;;;;;;;19.93;13.97;;;;;;;20.60;100.00;100916.47;4971197;28;20225;-72
2021/07/17 03:59:04;;;;;;;19.10;14.60;;;;;;;20.62;100.00;100913.78;4968726;28;20206;-72
2021/07/17 04:01:31;;;;;;;19.30;14.93;;;;;;;20.62;100.00;100905.81;4967172;28;20206;-72
2021/07/17 04:03:57;;;;;;;21.50;15.90;;;;;;;20.62;100.00;100903.19;4968032;28;20210;-72
2021/07/17 04:06:24;;;;;;;21.67;15.30;;;;;;;20.62;100.00;100903.19;4968212;28;20237;-72
2021/07/17 04:08:50;;;;;;;19.63;15.27;;;;;;;20.65;100.00;100903.00;4968595;28;20206;-72
2021/07/17 04:11:16;;;;;;;19.17;14.67;;;;;;;20.69;100.00;100908.94;4966258;28;20217;-72
2021/07/17 04:13:44;;;;;;;21.90;15.40;;;;;;;20.69;100.00;100904.47;4971115;28;20226;-72
2021/07/17 04:16:10;;;;;;;22.77;15.73;;;;;;;20.72;100.00;100900.78;4965887;28;20226;-72
2021/07/17 04:18:37;;;;;;;20.50;15.33;;;;;;;20.73;100.00;100897.19;4980128;28;20209;-72
2021/07/17 04:21:03;;;;;;;19.63;15.27;;;;;;;20.74;100.00;100910.34;4967567;28;20220;-72
2021/07/17 04:23:30;;;;;;;23.17;15.43;;;;;;;20.72;100.00;100903.41;4973764;28;20214;-72
2021/07/17 04:25:56;;;;;;;20.20;15.77;;;;;;;20.73;100.00;100900.69;4969976;28;20213;-72
2021/07/17 04:28:22;;;;;;;21.03;15.70;;;;;;;20.75;100.00;100900.59;4974581;28;20206;-72
2021/07/17 04:30:50;;;;;;;23.43;16.07;;;;;;;20.75;100.00;100903.22;4965187;28;20214;-72
2021/07/17 04:33:17;;;;;;;23.83;16.70;;;;;;;20.73;100.00;100908.63;4966625;28;20217;-72
2021/07/17 04:35:43;;;;;;;21.93;16.67;;;;;;;20.72;100.00;100908.72;4965866;28;20223;-72
2021/07/17 04:38:09;;;;;;;23.70;16.30;;;;;;;20.68;100.00;100909.88;4965136;28;20549;-72
2021/07/17 04:40:36;;;;;;;24.47;16.83;;;;;;;20.69;100.00;100914.25;4968601;28;20229;-72
2021/07/17 04:43:02;;;;;;;22.20;16.40;;;;;;;20.68;100.00;100909.88;4967303;28;20208;-72
2021/07/17 04:45:29;;;;;;;24.23;17.03;;;;;;;20.68;100.00;100913.38;4966633;28;20205;-72
2021/07/17 04:47:56;;;;;;;24.03;17.53;;;;;;;20.64;100.00;100911.03;4969406;28;20222;-72
2021/07/17 04:50:23;;;;;;;23.03;17.50;;;;;;;20.65;100.00;100918.00;4966391;28;20194;-72
2021/07/17 04:52:50;;;;;;;28.03;18.30;;;;;;;20.63;100.00;100910.16;4966822;28;20203;-72
2021/07/17 04:55:16;;;;;;;28.87;18.37;;;;;;;20.64;100.00;100916.34;4970077;28;20233;-72
2021/07/17 04:57:43;;;;;;;25.93;17.63;;;;;;;20.64;100.00;100911.88;4968953;28;20340;-72
2021/07/17 05:00:10;;;;;;;26.87;18.20;;;;;;;20.69;100.00;100914.25;4964740;28;20659;-72
2021/07/17 05:02:46;;;;;;;29.03;19.90;;;;;;;20.71;100.00;100912.34;4965208;28;20217;-72
2021/07/17 05:05:16;;;;;;;30.17;20.27;;;;;;;20.74;100.00;100907.69;4965364;28;20293;-72
2021/07/17 05:07:42;;;;;;;27.53;20.10;;;;;;;20.76;100.00;100905.78;4972466;28;20229;-72
2021/07/17 05:10:10;;;;;;;28.40;19.20;;;;;;;20.79;100.00;100907.38;4967418;28;20206;-72
2021/07/17 05:12:36;;;;;;;26.77;19.33;;;;;;;20.78;100.00;100901.22;4965698;28;20199;-72
2021/07/17 05:15:03;;;;;;;27.23;18.03;;;;;;;20.82;100.00;100906.34;4965206;28;20217;-72
2021/07/17 05:17:29;;;;;;;27.50;20.70;;;;;;;20.82;100.00;100903.69;4966114;28;20604;-72
2021/07/17 05:19:55;;;;;;;28.90;20.30;;;;;;;20.84;100.00;100912.38;4965265;28;20210;-72
2021/07/17 05:22:23;;;;;;;31.10;19.87;;;;;;;20.82;100.00;100907.19;4967666;28;20206;-72
2021/07/17 05:24:50;;;;;;;28.13;19.57;;;;;;;20.84;100.00;100907.09;4965340;28;20202;-72
2021/07/17 05:27:16;;;;;;;28.40;19.10;;;;;;;20.82;100.00;100901.03;4966905;28;20715;-72
2021/07/17 05:29:43;;;;;;;28.73;20.30;;;;;;;20.87;100.00;100913.03;4966150;28;20214;-72
2021/07/17 05:32:09;;;;;;;28.43;19.47;;;;;;;20.88;100.00;100909.44;4968018;28;20210;-72
2021/07/17 05:34:37;;;;;;;26.77;19.03;;;;;;;20.88;100.00;100904.16;4966901;28;20225;-72
2021/07/17 05:37:04;;;;;;;30.10;19.53;;;;;;;20.90;100.00;100912.84;4966210;28;20225;-71
2021/07/17 05:39:31;;;;;;;24.03;19.17;;;;;;;20.94;100.00;100913.50;4965352;28;20210;-72
2021/07/17 05:41:58;;;;;;;27.80;19.83;;;;;;;20.89;100.00;100913.78;4964816;28;20210;-72
2021/07/17 05:44:24;;;;;;;28.73;18.83;;;;;;;20.89;100.00;100910.28;4962617;28;20202;-72
2021/07/17 05:46:50;;;;;;;27.90;18.70;;;;;;;20.89;100.00;100911.13;4962639;28;20222;-72
2021/07/17 05:49:17;;;;;;;25.90;18.70;;;;;;;20.90;100.00;100904.91;4969013;28;20206;-72
2021/07/17 05:51:43;;;;;;;27.27;18.10;;;;;;;20.90;100.00;100909.34;4964992;28;20560;-72
2021/07/17 05:54:10;;;;;;;25.67;18.87;;;;;;;20.94;100.00;100913.50;4971796;28;20740;-72
2021/07/17 05:56:38;;;;;;;25.80;18.27;;;;;;;20.98;100.00;100921.16;4963449;28;20313;-72
2021/07/17 05:59:04;;;;;;;24.53;18.53;;;;;;;21.02;100.00;100923.59;4964826;28;20202;-72
2021/07/17 06:01:31;;;;;;;24.20;18.60;;;;;;;21.03;100.00;100917.34;4963371;28;20214;-72
2021/07/17 06:03:57;;;;;;;25.63;17.73;;;;;;;21.06;100.00;100919.81;4960334;28;20213;-72
2021/07/17 06:06:23;;;;;;;24.13;18.70;;;;;;;21.07;100.00;100921.47;4964564;28;20232;-72
2021/07/17 06:08:50;;;;;;;26.70;18.97;;;;;;;21.07;100.00;100922.34;4973429;28;20213;-71
2021/07/17 06:11:16;;;;;;;28.13;18.40;;;;;;;21.05;100.00;100924.22;4964595;28;20718;-72
2021/07/17 06:13:44;;;;;;;27.33;18.53;;;;;;;21.14;100.00;100928.09;4969200;28;20300;-72
2021/07/17 06:16:10;;;;;;;26.43;18.27;;;;;;;21.12;100.00;100928.19;4965924;28;20222;-72
2021/07/17 06:18:37;;;;;;;25.73;18.33;;;;;;;21.20;100.00;100934.81;4968803;28;20197;-72
2021/07/17 06:21:04;;;;;;;24.90;18.53;;;;;;;21.21;100.00;100933.84;4961401;28;20785;-72
2021/07/17 06:23:30;;;;;;;25.67;18.63;;;;;;;21.20;100.00;100945.41;4968039;28;20215;-72
2021/07/17 06:25:57;;;;;;;23.27;16.80;;;;;;;21.21;100.00;100941.78;4958809;28;20205;-72
2021/07/17 06:28:23;;;;;;;26.80;17.93;;;;;;;21.16;100.00;100936.81;4965322;28;21001;-72
2021/07/17 06:30:51;;;;;;;24.07;18.03;;;;;;;21.16;100.00;100940.31;4960140;28;20214;-72
2021/07/17 06:33:17;;;;;;;20.60;16.27;;;;;;;21.08;100.00;100945.25;4966337;28;20194;-72
2021/07/17 06:35:44;;;;;;;22.77;16.23;;;;;;;21.07;100.00;100946.22;4962048;28;20252;-72
2021/07/17 06:38:10;;;;;;;23.30;16.93;;;;;;;21.09;100.00;100944.31;4965913;28;20206;-72
2021/07/17 06:40:37;;;;;;;20.13;16.60;;;;;;;21.11;100.00;100942.41;4965577;28;20198;-72
2021/07/17 06:43:03;;;;;;;22.13;15.70;;;;;;;21.07;100.00;100945.34;4973357;28;20201;-72
2021/07/17 06:45:30;;;;;;;18.53;14.53;;;;;;;21.05;100.00;100948.09;4965042;28;20217;-72
2021/07/17 06:47:58;;;;;;;22.23;15.40;;;;;;;21.06;100.00;100944.50;4965305;28;20483;-72
2021/07/17 06:50:24;;;;;;;22.00;14.50;;;;;;;21.13;100.00;100952.91;4967273;28;20865;-72
2021/07/17 06:52:50;;;;;;;21.80;14.47;;;;;;;21.08;100.00;100953.19;4964978;28;20239;-72
2021/07/17 06:55:17;;;;;;;17.83;14.23;;;;;;;21.11;100.00;100958.31;4962945;28;20226;-72
2021/07/17 06:57:45;;;;;;;21.77;14.23;;;;;;;21.14;100.00;100954.59;4964822;28;20234;-72
2021/07/17 07:00:13;;;;;;;21.23;13.63;;;;;;;21.15;100.00;100958.97;4962076;28;20202;-72
2021/07/17 07:02:40;;;;;;;16.50;13.23;;;;;;;21.21;100.00;100955.03;4965086;28;20210;-72
2021/07/17 07:05:09;;;;;;;18.17;13.50;;;;;;;21.24;100.00;100958.34;4963393;28;20206;-72
2021/07/17 07:07:36;;;;;;;18.83;13.70;;;;;;;21.23;100.00;100955.78;4956452;28;20745;-72
2021/07/17 07:10:05;;;;;;;19.67;14.30;;;;;;;21.27;100.00;100957.31;4965196;28;20588;-73
2021/07/17 07:12:32;;;;;;;19.53;13.83;;;;;;;21.29;100.00;100956.25;4966048;28;20212;-72
2021/07/17 07:14:58;;;;;;;19.50;13.73;;;;;;;21.37;100.00;100958.38;4968143;28;20216;-72
2021/07/17 07:17:24;;;;;;;16.53;13.43;;;;;;;21.41;100.00;100956.41;4973972;28;20232;-72
2021/07/17 07:19:51;;;;;;;16.73;13.83;;;;;;;21.50;100.00;100956.66;4969926;28;20215;-72
2021/07/17 07:22:18;;;;;;;19.17;14.43;;;;;;;21.59;100.00;100959.66;4967323;28;20217;-72
2021/07/17 07:24:45;;;;;;;19.57;14.03;;;;;;;21.54;100.00;100957.28;4965255;28;20217;-72
2021/07/17 07:27:11;;;;;;;17.03;13.60;;;;;;;21.51;100.00;100954.84;4967692;28;20221;-72
2021/07/17 07:29:37;;;;;;;18.33;13.10;;;;;;;21.52;100.00;100953.91;4965958;28;20214;-72
2021/07/17 07:32:04;;;;;;;16.65;12.93;;;;;;;21.53;100.00;100955.63;4968428;28;20206;-72
2021/07/17 07:34:31;;;;;;;17.13;13.00;;;;;;;21.58;100.00;100952.63;4967677;28;20206;-72
2021/07/17 07:36:57;;;;;;;17.52;13.27;;;;;;;21.61;100.00;100950.63;4968599;28;20213;-72
2021/07/17 07:39:25;;;;;;;16.55;13.52;;;;;;;21.72;100.00;100956.06;4967250;28;20202;-72
2021/07/17 07:41:51;;;;;;;15.45;12.73;;;;;;;21.84;100.00;100956.19;4966357;28;20675;-72
2021/07/17 07:44:17;;;;;;;20.75;13.57;;;;;;;21.99;100.00;100952.47;4968450;28;20213;-72
2021/07/17 07:46:44;;;;;;;20.70;14.05;;;;;;;22.03;100.00;100961.91;4968946;28;20237;-72
2021/07/17 07:49:11;;;;;;;16.15;13.35;;;;;;;22.12;100.00;100957.78;4965227;28;20702;-72
2021/07/17 07:51:37;;;;;;;15.73;12.95;;;;;;;22.28;100.00;100955.78;4969521;28;20206;-72
2021/07/17 07:54:03;;;;;;;16.73;13.48;;;;;;;22.39;100.00;100956.81;4965350;28;20208;-72
2021/07/17 07:56:31;;;;;;;18.85;12.35;;;;;;;22.49;100.00;100952.56;4968827;28;20238;-72
2021/07/17 07:58:57;;;;;;;17.65;12.18;;;;;;;22.46;100.00;100955.44;4966937;28;20757;-72
2021/07/17 08:01:24;;;;;;;17.60;12.25;;;;;;;22.47;100.00;100957.97;4974746;28;20710;-72
2021/07/17 08:03:51;;;;;;;14.05;12.13;;;;;;;22.57;100.00;100958.19;4968636;28;20201;-72
2021/07/17 08:06:21;;;;;;;16.17;12.43;;;;;;;22.72;100.00;100960.69;4960744;28;20493;-73
2021/07/17 08:08:47;;;;;;;15.10;12.27;;;;;;;22.83;100.00;100958.97;4969447;28;20842;-73
2021/07/17 08:11:14;;;;;;;14.00;11.63;;;;;;;22.69;99.58;100964.44;4967423;28;20216;-73
2021/07/17 08:13:42;;;;;;;20.17;11.75;;;;;;;22.62;100.00;100961.38;4968236;28;20222;-73
2021/07/17 08:16:10;;;;;;;17.60;12.13;;;;;;;22.49;100.00;100964.03;4965896;28;20236;-73
2021/07/17 08:18:37;;;;;;;15.45;12.52;;;;;;;22.42;100.00;100960.13;4968375;28;20201;-73
2021/07/17 08:21:04;;;;;;;14.95;12.10;;;;;;;22.49;100.00;100968.50;4971974;28;20214;-73
2021/07/17 08:23:30;;;;;;;15.95;12.23;;;;;;;22.51;100.00;100966.59;4965981;28;20217;-73
2021/07/17 08:25:56;;;;;;;17.98;12.35;;;;;;;22.62;100.00;100977.31;4966574;28;20210;-73
2021/07/17 08:28:23;;;;;;;15.98;11.93;;;;;;;22.60;100.00;100976.56;4967363;28;20209;-73
2021/07/17 08:30:50;;;;;;;17.23;12.45;;;;;;;22.57;100.00;100976.78;4967142;28;20210;-73
2021/07/17 08:33:17;;;;;;;19.33;12.98;;;;;;;22.58;100.00;100981.13;4965628;28;20206;-73
2021/07/17 08:35:43;;;;;;;17.17;12.18;;;;;;;22.70;100.00;100976.75;4966459;28;20230;-73
2021/07/17 08:38:09;;;;;;;14.77;12.38;;;;;;;23.01;99.11;100970.06;4968142;28;20225;-73
2021/07/17 08:40:36;;;;;;;15.88;11.55;;;;;;;23.28;97.31;100982.31;4964940;28;20207;-73
2021/07/17 08:43:02;;;;;;;17.60;12.07;;;;;;;23.38;95.51;100985.16;4967771;28;20213;-73
2021/07/17 08:45:29;;;;;;;18.02;13.65;;;;;;;23.38;96.41;100993.97;4963700;28;20209;-73
2021/07/17 08:47:58;;;;;;;15.48;12.70;;;;;;;23.48;96.51;100983.47;4969172;28;20228;-73
2021/07/17 08:50:27;;;;;;;15.77;12.45;;;;;;;23.66;94.35;100986.59;4963959;28;20209;-74
2021/07/17 08:52:54;;;;;;;15.23;12.52;;;;;;;24.07;93.80;100987.09;4966183;28;20216;-73
2021/07/17 08:55:21;;;;;;;14.57;12.18;;;;;;;24.17;93.45;100986.25;4965636;28;20881;-73
2021/07/17 08:57:47;;;;;;;15.43;12.32;;;;;;;24.04;91.20;100980.16;4968069;28;20233;-73
2021/07/17 09:00:19;;;;;;;16.88;12.43;;;;;;;23.92;92.34;100987.31;4965019;28;20201;-74
2021/07/17 09:02:47;;;;;;;13.30;11.38;;;;;;;24.03;91.08;100978.47;4962308;28;20212;-73
2021/07/17 09:05:18;;;;;;;17.08;11.82;;;;;;;24.32;91.51;100972.69;4963024;28;20564;-74
2021/07/17 09:07:45;;;;;;;15.35;11.63;;;;;;;24.47;88.17;100979.47;4967734;28;20257;-73
2021/07/17 09:10:28;;;;;;;13.25;11.60;;;;;;;24.33;90.07;100969.06;4962695;28;20213;-73
2021/07/17 09:13:07;;;;;;;13.90;11.73;;;;;;;24.22;88.39;100977.03;4965269;28;20682;-74
2021/07/17 09:15:33;;;;;;;13.27;10.40;;;;;;;24.15;88.29;100968.66;4962428;28;20226;-73
2021/07/17 09:18:00;;;;;;;15.70;12.50;;;;;;;23.95;89.65;100960.41;4962681;28;20225;-73
2021/07/17 09:20:28;;;;;;;16.85;12.02;;;;;;;23.99;90.35;100959.22;4966256;28;20272;-73
2021/07/17 09:22:57;;;;;;;15.73;12.23;;;;;;;24.08;88.63;100968.31;4960891;28;20201;-73
2021/07/17 09:25:24;;;;;;;16.27;12.85;;;;;;;24.16;88.32;100968.56;4963757;28;20191;-73
2021/07/17 09:27:50;;;;;;;17.30;12.50;;;;;;;24.04;88.37;100971.34;4966925;28;20229;-73
2021/07/17 09:30:34;;;;;;;16.23;11.48;;;;;;;23.82;95.06;100962.34;4963024;28;20214;-73
2021/07/17 09:33:02;;;;;;;14.68;12.52;;;;;;;23.52;98.73;100965.50;4966196;28;20208;-73
2021/07/17 09:35:29;;;;;;;19.15;13.65;;;;;;;23.31;99.26;100957.31;4958892;28;20829;-73
2021/07/17 09:37:57;;;;;;;16.52;13.23;;;;;;;23.29;99.79;100960.09;4965478;28;20965;-74
2021/07/17 09:40:24;;;;;;;17.75;13.45;;;;;;;23.50;100.00;100949.66;4960873;28;20559;-72
2021/07/17 09:42:51;;;;;;;19.50;14.38;;;;;;;23.66;100.00;100956.44;4971129;28;20220;-73
2021/07/17 09:45:32;;;;;;;16.58;14.40;;;;;;;23.69;98.76;100948.25;4964645;28;20563;-72
2021/07/17 09:47:59;;;;;;;15.73;13.57;;;;;;;23.72;99.32;100946.19;4963455;28;20344;-72
2021/07/17 09:50:34;;;;;;;16.38;12.63;;;;;;;23.73;100.00;100936.41;4966482;28;20202;-72
2021/07/17 09:53:00;;;;;;;17.67;13.32;;;;;;;23.53;100.00;100957.38;4963706;28;20241;-73
2021/07/17 09:55:27;;;;;;;19.98;13.15;;;;;;;22.51;100.00;100971.91;4962601;28;20615;-78
2021/07/17 09:57:53;;;;;;;20.15;15.02;;;;;;;22.07;100.00;100950.13;4964686;28;20450;-77
2021/07/17 10:00:23;;;;;;;19.38;15.52;;;;;;;21.96;100.00;100959.81;4965454;28;20202;-77
2021/07/17 10:02:50;;;;;;;19.92;15.20;;;;;;;21.78;100.00;100953.97;4962897;28;20540;-77
2021/07/17 10:05:17;;;;;;;21.25;16.05;;;;;;;21.74;100.00;100966.59;4967303;28;20202;-78
2021/07/17 10:07:46;;;;;;;20.08;15.00;;;;;;;21.58;100.00;100961.44;4965266;28;20237;-77
2021/07/17 10:10:13;;;;;;;24.25;16.40;;;;;;;21.59;100.00;100963.16;4966078;28;20715;-78
2021/07/17 10:12:41;;;;;;;24.30;17.13;;;;;;;21.59;100.00;100959.66;4964056;28;20795;-77
2021/07/17 10:15:10;;;;;;;26.27;18.75;;;;;;;21.56;100.00;100963.34;4965971;28;20206;-77
2021/07/17 10:17:38;;;;;;;24.77;18.90;;;;;;;21.61;100.00;100961.22;4963571;28;20233;-77
2021/07/17 10:20:06;;;;;;;27.27;18.27;;;;;;;21.53;100.00;100947.66;4971415;28;20190;-78
2021/07/17 10:22:34;;;;;;;25.13;18.20;;;;;;;21.52;100.00;100946.78;4963934;28;20213;-78
2021/07/17 10:25:02;;;;;;;24.35;19.05;;;;;;;21.53;100.00;100943.19;4966828;28;20265;-78
2021/07/17 10:27:28;;;;;;;30.60;19.70;;;;;;;21.64;100.00;100942.47;4962254;28;20221;-77
2021/07/17 10:29:55;;;;;;;36.93;22.57;;;;;;;21.87;100.00;100940.06;4964457;28;20220;-77
2021/07/17 10:32:22;;;;;;;35.83;22.80;;;;;;;22.00;100.00;100935.56;4959589;28;20218;-76
2021/07/17 10:34:50;;;;;;;37.05;23.58;;;;;;;22.23;100.00;100935.78;4964315;28;20627;-77
2021/07/17 10:37:20;;;;;;;34.85;24.77;;;;;;;22.37;100.00;100932.19;4964938;28;20225;-77
2021/07/17 10:39:57;;;;;;;40.83;26.08;;;;;;;22.66;100.00;100935.44;4968534;28;20292;-78
2021/07/17 10:42:26;;;;;;;41.53;26.08;;;;;;;22.87;100.00;100930.34;4962317;28;20479;-78
2021/07/17 10:44:55;;;;;;;41.53;26.52;;;;;;;23.22;100.00;100935.75;4963291;28;20198;-78
2021/07/17 10:47:23;;;;;;;40.72;26.10;;;;;;;23.47;100.00;100925.94;4966239;28;20233;-77
2021/07/17 10:49:51;;;;;;;26.73;20.10;;;;;;;23.23;100.00;100928.63;4970341;28;20209;-77
2021/07/17 10:52:36;;;;;;;27.05;19.38;;;;;;;23.24;100.00;100931.16;4968701;28;20272;-78
2021/07/17 10:55:25;;;;;;;20.88;17.33;;;;;;;23.20;100.00;100937.69;4969683;28;20210;-78
2021/07/17 10:57:53;;;;;;;24.13;16.83;;;;;;;23.16;100.00;100932.69;4967563;28;20695;-77
2021/07/17 11:00:44;;;;;;;24.08;17.48;;;;;;;23.28;100.00;100923.81;4972937;28;20198;-78
2021/07/17 11:03:15;;;;;;;24.38;18.50;;;;;;;23.31;100.00;100914.75;4965867;28;20234;-77